createdAt,value
2022-11-21T00:01:19.547Z,9.27
2022-11-21T00:06:06.621Z,8.85
2022-11-21T00:10:54.626Z,8.85
2022-11-21T00:15:40.088Z,9.90
2022-11-21T00:20:25.829Z,12.52
2022-11-21T00:25:12.318Z,7.57
2022-11-21T00:29:59.979Z,7.45
2022-11-21T00:34:45.287Z,7.32
2022-11-21T00:39:30.715Z,6.75
2022-11-21T00:44:16.041Z,7.78
2022-11-21T00:49:03.679Z,7.32
2022-11-21T00:53:48.970Z,6.82
2022-11-21T00:58:33.970Z,6.28
2022-11-21T01:03:19.292Z,7.82
2022-11-21T01:08:07.303Z,6.25
2022-11-21T01:12:52.650Z,6.78
2022-11-21T01:17:37.751Z,6.53
2022-11-21T01:22:23.311Z,5.90
2022-11-21T01:27:10.984Z,6.15
2022-11-21T01:31:56.271Z,5.95
2022-11-21T01:36:41.291Z,6.35
2022-11-21T01:41:31.414Z,5.40
2022-11-21T01:46:20.691Z,5.40
2022-11-21T01:51:11.301Z,4.95
2022-11-21T01:55:57.051Z,5.45
2022-11-21T02:00:45.335Z,5.32
2022-11-21T02:05:36.251Z,4.43
2022-11-21T02:10:23.119Z,5.40
2022-11-21T02:15:09.783Z,4.85
2022-11-21T02:19:59.077Z,4.70
2022-11-21T02:24:49.968Z,5.25
2022-11-21T02:29:37.939Z,5.65
2022-11-21T02:34:23.008Z,4.75
2022-11-21T02:39:09.790Z,4.85
2022-11-21T02:44:00.034Z,5.07
2022-11-21T02:48:48.242Z,4.93
2022-11-21T02:53:33.240Z,5.13
2022-11-21T02:58:19.747Z,5.20
2022-11-21T03:03:04.921Z,5.43
2022-11-21T03:07:52.928Z,5.70
2022-11-21T03:12:39.095Z,5.57
2022-11-21T03:17:24.468Z,5.05
2022-11-21T03:22:09.555Z,5.32
2022-11-21T03:26:57.527Z,7.03
2022-11-21T03:31:42.757Z,6.10
2022-11-21T03:36:28.055Z,7.03
2022-11-21T03:41:25.220Z,7.32
2022-11-21T03:46:13.132Z,6.95
2022-11-21T03:50:58.244Z,7.35
2022-11-21T03:55:43.499Z,6.90
2022-11-21T04:00:28.518Z,6.43
2022-11-21T04:05:16.506Z,7.25
2022-11-21T04:10:01.547Z,6.35
2022-11-21T04:14:46.928Z,6.72
2022-11-21T04:19:31.971Z,5.28
2022-11-21T04:24:19.861Z,5.55
2022-11-21T04:29:04.872Z,6.35
2022-11-21T04:33:50.171Z,6.45
2022-11-21T04:38:35.200Z,5.15
2022-11-21T04:43:23.121Z,5.32
2022-11-21T04:48:08.460Z,6.57
2022-11-21T04:52:54.917Z,5.72
2022-11-21T04:57:39.960Z,6.57
2022-11-21T05:02:27.963Z,6.03
2022-11-21T05:07:13.063Z,5.78
2022-11-21T05:12:10.696Z,5.55
2022-11-21T05:16:55.759Z,5.93
2022-11-21T05:21:43.668Z,6.35
2022-11-21T05:26:28.730Z,6.88
2022-11-21T05:31:14.031Z,6.68
2022-11-21T05:35:59.080Z,6.93
2022-11-21T05:40:46.966Z,7.47
2022-11-21T05:45:31.919Z,7.85
2022-11-21T05:50:17.318Z,7.18
2022-11-21T05:55:02.351Z,7.50
2022-11-21T05:59:50.286Z,7.10
2022-11-21T06:04:35.287Z,8.02
2022-11-21T06:09:20.588Z,6.78
2022-11-21T06:14:05.700Z,7.03
2022-11-21T06:19:03.818Z,7.30
2022-11-21T06:23:49.862Z,6.25
2022-11-21T06:28:36.985Z,5.90
2022-11-21T06:33:22.616Z,5.57
2022-11-21T06:38:10.272Z,4.80
2022-11-21T06:42:55.546Z,5.50
2022-11-21T06:47:40.568Z,5.38
2022-11-21T06:52:25.862Z,4.07
2022-11-21T06:57:13.455Z,4.35
2022-11-21T07:01:58.801Z,4.22
2022-11-21T07:06:43.860Z,4.10
2022-11-21T07:11:29.246Z,5.38
2022-11-21T07:16:17.271Z,5.30
2022-11-21T07:21:02.695Z,3.95
2022-11-21T07:25:48.188Z,3.90
2022-11-21T07:30:33.539Z,3.97
2022-11-21T07:35:21.156Z,4.25
2022-11-21T07:40:06.971Z,3.92
2022-11-21T07:44:52.000Z,3.67
2022-11-21T07:49:37.299Z,4.32
2022-11-21T07:54:24.916Z,3.67
2022-11-21T07:59:10.234Z,3.92
2022-11-21T08:03:55.413Z,3.42
2022-11-21T08:08:40.783Z,3.65
2022-11-21T08:13:28.422Z,5.65
2022-11-21T08:18:14.817Z,4.20
2022-11-21T08:22:59.799Z,3.40
2022-11-21T08:27:45.151Z,2.10
2022-11-21T08:32:33.050Z,1.85
2022-11-21T08:37:18.063Z,2.83
2022-11-21T08:42:06.250Z,4.35
2022-11-21T08:46:51.279Z,3.50
2022-11-21T08:51:39.423Z,4.90
2022-11-21T08:56:24.461Z,5.82
2022-11-21T09:01:09.756Z,7.47
2022-11-21T09:05:54.787Z,7.13
2022-11-21T09:10:42.671Z,6.50
2022-11-21T09:15:40.043Z,8.55
2022-11-21T09:20:25.710Z,9.48
2022-11-21T09:25:11.608Z,10.32
2022-11-21T09:29:59.603Z,11.45
2022-11-21T09:34:44.629Z,9.95
2022-11-21T09:39:30.179Z,8.52
2022-11-21T09:44:30.658Z,9.43
2022-11-21T09:49:19.655Z,9.75
2022-11-21T09:54:09.548Z,9.27
2022-11-21T09:59:08.122Z,8.90
2022-11-21T10:03:55.085Z,9.23
2022-11-21T10:08:55.020Z,8.35
2022-11-21T10:13:52.729Z,8.18
2022-11-21T10:19:22.061Z,8.35
2022-11-21T10:24:25.465Z,8.20
2022-11-21T10:29:18.258Z,7.85
2022-11-21T10:34:06.463Z,8.32
2022-11-21T10:38:53.208Z,7.65
2022-11-21T10:43:59.075Z,10.07
2022-11-21T10:48:44.401Z,7.88
2022-11-21T10:53:42.060Z,8.57
2022-11-21T10:58:43.359Z,7.97
2022-11-21T11:03:28.647Z,8.67
2022-11-21T11:08:15.332Z,7.10
2022-11-21T11:13:38.712Z,8.30
2022-11-21T11:18:24.978Z,7.90
2022-11-21T11:23:26.437Z,9.43
2022-11-21T11:28:12.058Z,7.72
2022-11-21T11:32:57.362Z,7.50
2022-11-21T11:37:47.098Z,8.20
2022-11-21T11:43:20.690Z,8.30
2022-11-21T11:48:11.141Z,8.75
2022-11-21T11:53:10.523Z,8.07
2022-11-21T11:58:01.239Z,8.77
2022-11-21T12:02:55.098Z,9.52
2022-11-21T12:12:55.843Z,9.77
2022-11-21T12:17:47.054Z,9.18
2022-11-21T12:22:32.527Z,9.05
2022-11-21T12:27:27.564Z,7.22
2022-11-21T12:32:30.464Z,9.02
2022-11-21T12:37:33.650Z,9.25
2022-11-21T12:42:41.816Z,6.85
2022-11-21T12:47:59.775Z,6.50
2022-11-21T12:53:04.070Z,6.63
2022-11-21T12:58:08.638Z,6.47
2022-11-21T13:03:20.621Z,6.80
2022-11-21T13:08:11.504Z,6.53
2022-11-21T13:13:03.256Z,5.95
2022-11-21T13:23:00.265Z,7.95
2022-11-21T13:27:46.268Z,6.40
2022-11-21T13:32:41.369Z,6.38
2022-11-21T13:38:01.979Z,6.03
2022-11-21T13:43:35.180Z,5.40
2022-11-21T13:48:36.744Z,5.90
2022-11-21T13:53:42.014Z,4.95
2022-11-21T13:58:47.083Z,4.70
2022-11-21T14:04:03.927Z,4.03
2022-11-21T14:09:20.502Z,4.88
2022-11-21T14:14:08.563Z,3.33
2022-11-21T14:18:53.850Z,2.80
2022-11-21T14:23:47.135Z,3.40
2022-11-21T14:28:34.383Z,3.90
2022-11-21T14:33:33.793Z,3.60
2022-11-21T14:38:19.119Z,3.78
2022-11-21T14:43:04.388Z,4.45
2022-11-21T14:47:51.379Z,3.60
2022-11-21T14:52:39.460Z,3.63
2022-11-21T14:57:27.625Z,4.55
2022-11-21T15:02:17.144Z,5.10
2022-11-21T15:07:02.464Z,3.28
2022-11-21T15:11:55.376Z,3.55
2022-11-21T15:16:40.934Z,3.95
2022-11-21T15:21:26.358Z,3.97
2022-11-21T15:26:31.203Z,4.85
2022-11-21T15:31:23.984Z,4.07
2022-11-21T15:36:16.509Z,3.22
2022-11-21T15:41:08.483Z,2.88
2022-11-21T15:46:04.852Z,3.53
2022-11-21T15:50:57.555Z,3.13
2022-11-21T15:55:43.896Z,3.03
2022-11-21T16:00:29.227Z,2.55
2022-11-21T16:05:15.990Z,2.33
2022-11-21T16:10:03.899Z,3.20
2022-11-21T16:14:49.031Z,2.05
2022-11-21T16:19:34.614Z,2.78
2022-11-21T16:24:19.814Z,2.53
2022-11-21T16:29:08.157Z,2.58
2022-11-21T16:33:53.163Z,4.15
2022-11-21T16:38:38.469Z,2.80
2022-11-21T16:43:23.549Z,3.00
2022-11-21T16:48:11.544Z,2.97
2022-11-21T16:52:56.623Z,2.20
2022-11-21T16:57:43.318Z,2.53
2022-11-21T17:02:28.395Z,2.90
2022-11-21T17:07:16.346Z,3.00
2022-11-21T17:12:01.747Z,2.72
2022-11-21T17:16:48.936Z,3.00
2022-11-21T17:21:34.952Z,3.13
2022-11-21T17:26:25.366Z,3.10
2022-11-21T17:31:11.324Z,3.60
2022-11-21T17:35:56.642Z,4.38
2022-11-21T17:40:41.760Z,4.22
2022-11-21T17:45:29.691Z,3.13
2022-11-21T17:50:14.788Z,3.20
2022-11-21T17:55:00.055Z,3.75
2022-11-21T17:59:45.318Z,3.90
2022-11-21T18:04:34.521Z,2.78
2022-11-21T18:09:19.859Z,4.10
2022-11-21T18:14:05.869Z,3.53
2022-11-21T18:18:51.836Z,3.45
2022-11-21T18:23:39.999Z,5.00
2022-11-21T18:28:25.023Z,3.67
2022-11-21T18:33:14.522Z,2.28
2022-11-21T18:42:50.107Z,3.20
2022-11-21T18:47:35.375Z,6.57
2022-11-21T18:52:20.692Z,3.35
2022-11-21T18:57:06.091Z,2.28
2022-11-21T19:01:53.913Z,3.42
2022-11-21T19:06:39.509Z,3.30
2022-11-21T19:11:27.149Z,2.53
2022-11-21T19:16:15.919Z,3.10
2022-11-21T19:21:04.648Z,3.30
2022-11-21T19:25:50.035Z,3.40
2022-11-21T19:30:36.401Z,3.72
2022-11-21T19:35:23.755Z,3.75
2022-11-21T19:40:13.110Z,2.92
2022-11-21T19:44:58.416Z,3.33
2022-11-21T19:49:43.724Z,3.17
2022-11-21T19:54:28.990Z,3.60
2022-11-21T19:59:17.681Z,3.17
2022-11-21T20:04:05.363Z,3.20
2022-11-21T20:08:53.951Z,3.13
2022-11-21T20:13:39.660Z,3.00
2022-11-21T20:18:28.852Z,2.85
2022-11-21T20:23:14.376Z,3.15
2022-11-21T20:27:59.708Z,3.53
2022-11-21T20:32:44.840Z,3.28
2022-11-21T20:37:32.721Z,4.00
2022-11-21T20:42:17.760Z,3.50
2022-11-21T20:47:03.070Z,2.60
2022-11-21T20:56:56.600Z,3.00
2022-11-21T21:01:41.849Z,5.00
2022-11-21T21:06:27.348Z,3.40
2022-11-21T21:11:36.891Z,3.40
2022-11-21T21:16:25.647Z,3.65
2022-11-21T21:21:17.264Z,3.10
2022-11-21T21:30:55.022Z,1.92
2022-11-21T21:35:42.948Z,1.65
2022-11-21T21:40:27.984Z,2.33
2022-11-21T21:45:14.222Z,2.53
2022-11-21T21:49:59.271Z,2.70
2022-11-21T21:54:47.442Z,2.28
2022-11-21T21:59:33.134Z,2.60
2022-11-21T22:04:18.502Z,2.65
2022-11-21T22:09:03.574Z,2.55
2022-11-21T22:13:55.469Z,3.22
2022-11-21T22:18:41.202Z,4.07
2022-11-21T22:23:27.241Z,4.70
2022-11-21T22:28:12.905Z,3.88
2022-11-21T22:33:00.868Z,3.10
2022-11-21T22:37:45.908Z,1.98
2022-11-21T22:42:31.419Z,2.50
2022-11-21T22:47:16.449Z,2.20
2022-11-21T22:52:04.421Z,2.28
2022-11-21T22:56:49.440Z,3.13
2022-11-21T23:01:36.697Z,2.35
2022-11-21T23:06:23.889Z,2.72
2022-11-21T23:11:13.541Z,3.53
2022-11-21T23:15:58.959Z,3.33
2022-11-21T23:20:46.419Z,1.95
2022-11-21T23:25:32.446Z,2.10
2022-11-21T23:30:20.509Z,1.77
2022-11-21T23:35:06.165Z,3.30
2022-11-21T23:39:51.588Z,3.60
2022-11-21T23:44:36.876Z,3.78
2022-11-21T23:49:24.552Z,3.58
2022-11-21T23:54:09.880Z,3.75
2022-11-21T23:58:54.950Z,3.85
